createdAt,value
2018-12-24T00:02:14.353Z,13.30
2018-12-24T00:04:43.558Z,13.30
2018-12-24T00:07:12.749Z,13.30
2018-12-24T00:09:41.942Z,13.30
2018-12-24T00:12:11.122Z,13.40
2018-12-24T00:14:40.322Z,13.40
2018-12-24T00:17:09.503Z,13.40
2018-12-24T00:19:38.698Z,13.50
2018-12-24T00:22:07.894Z,13.50
2018-12-24T00:24:37.094Z,13.30
2018-12-24T00:27:06.281Z,13.30
2018-12-24T00:29:35.478Z,13.40
2018-12-24T00:32:04.668Z,13.20
2018-12-24T00:34:33.908Z,13.30
2018-12-24T00:37:03.155Z,13.30
2018-12-24T00:39:32.409Z,13.30
2018-12-24T00:42:01.610Z,13.40
2018-12-24T00:44:30.784Z,13.40
2018-12-24T00:46:59.971Z,13.40
2018-12-24T00:49:29.171Z,13.30
2018-12-24T00:51:58.495Z,13.30
2018-12-24T00:54:27.695Z,13.40
2018-12-24T00:56:56.869Z,13.60
2018-12-24T00:59:26.061Z,13.50
2018-12-24T01:01:56.976Z,13.40
2018-12-24T01:04:26.165Z,13.40
2018-12-24T01:06:55.341Z,13.40
2018-12-24T01:09:24.559Z,13.50
2018-12-24T01:11:53.792Z,13.50
2018-12-24T01:14:22.981Z,13.60
2018-12-24T01:16:52.177Z,13.50
2018-12-24T01:19:21.371Z,13.20
2018-12-24T01:21:50.574Z,11.50
2018-12-24T01:24:19.777Z,10.40
2018-12-24T01:26:48.974Z,10.30
2018-12-24T01:29:18.164Z,10.30
2018-12-24T01:31:47.359Z,10.60
2018-12-24T01:34:16.548Z,10.70
2018-12-24T01:36:45.753Z,10.80
2018-12-24T01:39:14.933Z,11.10
2018-12-24T01:41:44.143Z,11.00
2018-12-24T01:44:13.540Z,11.30
2018-12-24T01:46:42.798Z,11.20
2018-12-24T01:49:11.978Z,11.20
2018-12-24T01:51:41.181Z,11.40
2018-12-24T01:54:10.379Z,11.40
2018-12-24T01:56:39.733Z,11.70
2018-12-24T01:59:08.909Z,12.10
2018-12-24T02:01:39.083Z,12.40
2018-12-24T02:04:08.268Z,12.50
2018-12-24T02:06:37.465Z,12.60
2018-12-24T02:09:06.802Z,12.90
2018-12-24T02:11:35.998Z,12.90
2018-12-24T02:14:05.199Z,12.70
2018-12-24T02:16:34.462Z,12.30
2018-12-24T02:19:03.657Z,12.10
2018-12-24T02:21:32.899Z,11.60
2018-12-24T02:24:02.085Z,11.30
2018-12-24T02:26:31.260Z,11.50
2018-12-24T02:29:00.462Z,11.10
2018-12-24T02:31:29.646Z,10.90
2018-12-24T02:33:58.839Z,10.60
2018-12-24T02:36:28.018Z,10.70
2018-12-24T02:38:57.219Z,10.50
2018-12-24T02:41:26.401Z,10.60
2018-12-24T02:43:55.595Z,10.90
2018-12-24T02:46:24.778Z,11.20
2018-12-24T02:48:53.968Z,10.80
2018-12-24T02:51:23.229Z,11.00
2018-12-24T02:53:52.434Z,10.90
2018-12-24T02:56:21.611Z,10.60
2018-12-24T02:58:50.797Z,10.20
2018-12-24T03:01:19.984Z,10.30
2018-12-24T03:03:49.289Z,10.40
2018-12-24T03:06:18.534Z,10.50
2018-12-24T03:08:47.734Z,10.40
2018-12-24T03:11:16.928Z,10.50
2018-12-24T03:13:46.126Z,10.50
2018-12-24T03:16:15.303Z,10.20
2018-12-24T03:18:44.510Z,10.00
2018-12-24T03:21:13.733Z,10.10
2018-12-24T03:23:42.933Z,10.40
2018-12-24T03:26:12.121Z,10.60
2018-12-24T03:28:41.324Z,10.80
2018-12-24T03:31:10.512Z,10.80
2018-12-24T03:33:39.702Z,10.90
2018-12-24T03:36:08.932Z,11.10
2018-12-24T03:38:38.122Z,11.00
2018-12-24T03:41:07.301Z,11.00
2018-12-24T03:43:36.593Z,10.80
2018-12-24T03:46:05.777Z,10.50
2018-12-24T03:48:35.227Z,10.30
2018-12-24T03:51:04.433Z,10.20
2018-12-24T03:53:33.613Z,9.90
2018-12-24T03:56:02.780Z,10.00
2018-12-24T03:58:31.961Z,9.90
2018-12-24T04:01:01.152Z,9.40
2018-12-24T04:03:30.327Z,9.40
2018-12-24T04:05:59.519Z,9.70
2018-12-24T04:08:28.702Z,10.00
2018-12-24T04:10:57.904Z,10.10
2018-12-24T04:13:27.082Z,10.10
2018-12-24T04:15:56.280Z,9.90
2018-12-24T04:18:25.462Z,9.80
2018-12-24T04:20:54.656Z,8.90
2018-12-24T04:23:23.842Z,9.00
2018-12-24T04:25:53.050Z,9.10
2018-12-24T04:28:22.231Z,9.10
2018-12-24T04:30:51.436Z,9.30
2018-12-24T04:33:20.615Z,9.40
2018-12-24T04:35:49.803Z,9.40
2018-12-24T04:38:18.980Z,9.60
2018-12-24T04:40:48.172Z,9.70
2018-12-24T04:43:17.347Z,9.80
2018-12-24T04:45:46.548Z,9.80
2018-12-24T04:48:15.710Z,9.70
2018-12-24T04:50:45.212Z,9.70
2018-12-24T04:53:14.393Z,9.50
2018-12-24T04:55:43.910Z,8.70
2018-12-24T04:58:13.095Z,9.00
2018-12-24T05:00:43.265Z,9.00
2018-12-24T05:03:12.443Z,8.70
2018-12-24T05:05:41.627Z,8.60
2018-12-24T05:08:10.819Z,8.90
2018-12-24T05:10:40.002Z,9.00
2018-12-24T05:13:09.206Z,8.90
2018-12-24T05:15:38.373Z,8.90
2018-12-24T05:18:07.563Z,8.90
2018-12-24T05:20:36.745Z,8.90
2018-12-24T05:23:05.942Z,8.80
2018-12-24T05:25:35.117Z,8.90
2018-12-24T05:28:04.318Z,9.00
2018-12-24T05:30:33.500Z,9.10
2018-12-24T05:33:02.686Z,8.90
2018-12-24T05:35:31.860Z,9.10
2018-12-24T05:38:01.058Z,9.10
2018-12-24T05:40:30.245Z,9.40
2018-12-24T05:42:59.437Z,9.50
2018-12-24T05:45:28.615Z,9.50
2018-12-24T05:47:57.806Z,9.60
2018-12-24T05:50:26.978Z,9.70
2018-12-24T05:52:56.171Z,9.70
2018-12-24T05:55:25.346Z,9.30
2018-12-24T05:57:54.543Z,9.40
2018-12-24T06:00:23.717Z,9.40
2018-12-24T06:02:52.897Z,9.10
2018-12-24T06:05:22.087Z,8.80
2018-12-24T06:07:51.261Z,8.90
2018-12-24T06:10:20.453Z,8.90
2018-12-24T06:12:49.643Z,8.60
2018-12-24T06:15:18.845Z,8.60
2018-12-24T06:17:48.017Z,8.60
2018-12-24T06:20:17.210Z,8.00
2018-12-24T06:22:46.390Z,7.60
2018-12-24T06:25:15.579Z,7.80
2018-12-24T06:27:44.753Z,8.10
2018-12-24T06:30:13.941Z,8.40
2018-12-24T06:32:43.137Z,8.60
2018-12-24T06:35:12.423Z,8.60
2018-12-24T06:37:41.655Z,8.80
2018-12-24T06:40:10.878Z,9.10
2018-12-24T06:42:40.054Z,9.10
2018-12-24T06:45:09.248Z,9.10
2018-12-24T06:47:38.446Z,9.10
2018-12-24T06:50:07.614Z,9.10
2018-12-24T06:52:36.807Z,9.10
2018-12-24T06:55:06.018Z,9.20
2018-12-24T06:57:35.198Z,8.70
2018-12-24T07:00:04.994Z,8.70
2018-12-24T07:02:34.177Z,8.90
2018-12-24T07:05:03.634Z,9.00
2018-12-24T07:07:32.818Z,9.10
2018-12-24T07:10:02.021Z,9.20
2018-12-24T07:12:31.218Z,9.10
2018-12-24T07:15:00.414Z,9.10
2018-12-24T07:17:29.667Z,8.90
2018-12-24T07:19:58.882Z,8.80
2018-12-24T07:22:28.074Z,8.60
2018-12-24T07:24:57.241Z,8.60
2018-12-24T07:27:26.435Z,8.60
2018-12-24T07:29:55.922Z,8.70
2018-12-24T07:32:25.110Z,9.10
2018-12-24T07:34:54.285Z,8.60
2018-12-24T07:37:23.476Z,8.80
2018-12-24T07:39:52.971Z,9.10
2018-12-24T07:42:22.178Z,9.20
2018-12-24T07:44:51.349Z,9.20
2018-12-24T07:47:20.547Z,9.30
2018-12-24T07:49:49.764Z,9.30
2018-12-24T07:52:18.978Z,9.40
2018-12-24T07:54:48.186Z,9.50
2018-12-24T07:57:17.383Z,9.50
2018-12-24T07:59:46.556Z,9.60
2018-12-24T08:02:15.741Z,9.80
2018-12-24T08:04:45.202Z,9.90
2018-12-24T08:07:14.400Z,9.90
2018-12-24T08:09:43.588Z,9.70
2018-12-24T08:12:12.902Z,9.60
2018-12-24T08:14:42.136Z,9.30
2018-12-24T08:17:11.325Z,9.20
2018-12-24T08:19:41.480Z,9.30
2018-12-24T08:22:10.673Z,9.40
2018-12-24T08:24:39.861Z,9.40
2018-12-24T08:27:09.054Z,9.50
2018-12-24T08:29:38.230Z,9.50
2018-12-24T08:32:07.426Z,9.40
2018-12-24T08:34:36.605Z,9.30
2018-12-24T08:37:05.803Z,9.10
2018-12-24T08:39:35.005Z,9.10
2018-12-24T08:42:04.197Z,9.00
2018-12-24T08:44:41.538Z,9.00
2018-12-24T08:47:05.268Z,9.00
2018-12-24T08:49:34.436Z,9.10
2018-12-24T08:52:03.704Z,9.10
2018-12-24T08:54:32.968Z,9.30
2018-12-24T08:57:02.267Z,9.20
2018-12-24T08:59:31.607Z,9.30
2018-12-24T09:02:00.813Z,9.20
2018-12-24T09:04:29.994Z,9.30
2018-12-24T09:06:59.190Z,9.40
2018-12-24T09:09:28.373Z,9.40
2018-12-24T09:11:57.564Z,9.50
2018-12-24T09:14:26.841Z,9.40
2018-12-24T09:16:56.057Z,9.50
2018-12-24T09:19:25.243Z,9.50
2018-12-24T09:21:54.426Z,9.30
2018-12-24T09:24:23.622Z,9.60
2018-12-24T09:26:52.816Z,9.90
2018-12-24T09:29:22.018Z,9.90
2018-12-24T09:31:51.199Z,9.90
2018-12-24T09:34:20.381Z,9.90
2018-12-24T09:36:49.575Z,10.00
2018-12-24T09:39:18.766Z,10.30
2018-12-24T09:41:47.947Z,10.40
2018-12-24T09:44:17.146Z,10.30
2018-12-24T09:46:46.328Z,10.40
2018-12-24T09:49:15.529Z,10.20
2018-12-24T09:51:44.705Z,10.10
2018-12-24T09:54:56.064Z,10.00
2018-12-24T09:57:25.226Z,9.80
2018-12-24T09:59:54.327Z,9.50
2018-12-24T10:02:26.676Z,9.50
2018-12-24T10:04:55.787Z,9.40
2018-12-24T10:07:29.197Z,9.40
2018-12-24T10:09:58.295Z,10.00
2018-12-24T10:12:27.386Z,10.20
2018-12-24T10:14:56.490Z,10.50
2018-12-24T10:17:25.593Z,10.70
2018-12-24T10:19:54.815Z,11.80
2018-12-24T10:22:23.992Z,13.30
2018-12-24T10:24:53.169Z,13.70
2018-12-24T10:27:22.268Z,13.60
2018-12-24T10:29:51.372Z,13.00
2018-12-24T10:32:20.469Z,14.00
2018-12-24T10:34:49.574Z,13.60
2018-12-24T10:37:18.679Z,13.40
2018-12-24T10:39:47.795Z,12.60
2018-12-24T10:42:16.902Z,12.50
2018-12-24T10:44:46.007Z,12.40
2018-12-24T10:47:15.099Z,12.30
2018-12-24T10:49:44.212Z,12.80
2018-12-24T10:52:13.298Z,12.60
2018-12-24T10:54:42.410Z,12.00
2018-12-24T10:57:11.775Z,13.00
2018-12-24T10:59:40.887Z,16.90
2018-12-24T11:02:09.985Z,16.70
2018-12-24T11:04:39.093Z,16.30
2018-12-24T11:07:08.451Z,15.70
2018-12-24T11:09:37.733Z,14.60
2018-12-24T11:12:07.169Z,14.30
2018-12-24T11:14:36.337Z,14.40
2018-12-24T11:17:05.965Z,14.20
2018-12-24T11:19:36.066Z,14.30
2018-12-24T11:22:05.230Z,13.70
2018-12-24T11:24:34.323Z,13.60
2018-12-24T11:27:03.427Z,13.30
2018-12-24T11:29:32.514Z,13.20
2018-12-24T11:32:01.663Z,13.20
2018-12-24T11:34:30.765Z,12.90
2018-12-24T11:37:00.013Z,12.40
2018-12-24T11:39:29.191Z,11.70
2018-12-24T11:41:58.371Z,11.20
2018-12-24T11:44:27.463Z,11.10
2018-12-24T11:46:56.576Z,11.10
2018-12-24T11:49:25.970Z,11.00
2018-12-24T11:51:55.071Z,10.70
2018-12-24T11:54:24.167Z,10.90
2018-12-24T11:56:53.362Z,10.60
2018-12-24T11:59:23.429Z,10.80
2018-12-24T12:01:52.538Z,10.90
2018-12-24T12:04:21.632Z,10.50
2018-12-24T12:06:50.742Z,9.80
2018-12-24T12:09:19.850Z,9.60
2018-12-24T12:11:48.955Z,9.80
2018-12-24T12:14:18.042Z,9.80
2018-12-24T12:16:47.147Z,10.00
2018-12-24T12:19:16.266Z,10.50
2018-12-24T12:21:45.530Z,11.10
2018-12-24T12:24:14.738Z,11.60
2018-12-24T12:26:44.037Z,12.10
2018-12-24T12:29:13.254Z,12.00
2018-12-24T12:31:42.363Z,12.10
2018-12-24T12:34:11.542Z,12.40
2018-12-24T12:36:40.831Z,12.70
2018-12-24T12:39:09.972Z,12.50
2018-12-24T12:41:39.075Z,12.00
2018-12-24T12:44:08.170Z,11.80
2018-12-24T12:46:37.279Z,11.70
2018-12-24T12:49:06.370Z,11.80
2018-12-24T12:51:35.474Z,11.80
2018-12-24T12:54:04.698Z,12.00
2018-12-24T12:56:44.359Z,12.20
2018-12-24T12:59:13.446Z,12.30
2018-12-24T13:01:42.651Z,11.60
2018-12-24T13:04:11.839Z,11.90
2018-12-24T13:06:42.042Z,12.10
2018-12-24T13:09:11.150Z,11.90
2018-12-24T13:11:40.243Z,11.80
2018-12-24T13:14:09.374Z,10.20
2018-12-24T13:16:38.443Z,10.30
2018-12-24T13:19:08.202Z,10.50
2018-12-24T13:21:37.658Z,10.70
2018-12-24T13:24:06.760Z,10.70
2018-12-24T13:26:35.851Z,10.60
2018-12-24T13:29:06.015Z,10.40
2018-12-24T13:31:36.176Z,10.20
2018-12-24T13:34:05.287Z,9.90
2018-12-24T13:36:34.374Z,9.40
2018-12-24T13:39:04.215Z,9.50
2018-12-24T13:41:33.374Z,9.60
2018-12-24T13:44:02.473Z,9.90
2018-12-24T13:46:31.566Z,10.20
2018-12-24T13:49:00.675Z,10.60
2018-12-24T13:51:30.823Z,10.80
2018-12-24T13:53:59.927Z,10.90
2018-12-24T13:56:29.171Z,10.80
2018-12-24T13:58:58.427Z,10.30
2018-12-24T14:01:27.572Z,9.80
2018-12-24T14:03:56.774Z,9.70
2018-12-24T14:06:25.887Z,9.90
2018-12-24T14:08:55.114Z,9.70
2018-12-24T14:11:24.501Z,9.60
2018-12-24T14:13:53.770Z,9.80
2018-12-24T14:16:22.931Z,10.00
2018-12-24T14:18:52.074Z,10.20
2018-12-24T14:21:34.032Z,10.30
2018-12-24T14:24:03.177Z,10.40
2018-12-24T14:26:32.334Z,10.40
2018-12-24T14:29:01.509Z,10.40
2018-12-24T14:31:30.623Z,10.20
2018-12-24T14:33:59.964Z,10.00
2018-12-24T14:36:29.153Z,9.90
2018-12-24T14:38:58.582Z,9.90
2018-12-24T14:41:27.836Z,9.80
2018-12-24T14:43:56.984Z,10.00
2018-12-24T14:46:26.070Z,10.10
2018-12-24T14:48:55.161Z,10.10
2018-12-24T14:51:24.328Z,9.50
2018-12-24T14:53:53.411Z,9.10
2018-12-24T14:56:22.505Z,9.20
2018-12-24T14:58:51.583Z,9.40
2018-12-24T15:01:20.673Z,9.70
2018-12-24T15:03:49.836Z,9.80
2018-12-24T15:06:18.928Z,9.90
2018-12-24T15:08:48.040Z,9.90
2018-12-24T15:11:17.130Z,9.90
2018-12-24T15:13:46.227Z,10.00
2018-12-24T15:16:15.317Z,9.90
2018-12-24T15:18:44.452Z,9.90
2018-12-24T15:21:13.529Z,9.70
2018-12-24T15:23:42.604Z,9.60
2018-12-24T15:26:11.701Z,9.70
2018-12-24T15:28:40.775Z,9.80
2018-12-24T15:31:09.874Z,9.60
2018-12-24T15:33:38.949Z,9.70
2018-12-24T15:36:08.122Z,9.80
2018-12-24T15:38:37.215Z,9.90
2018-12-24T15:41:06.368Z,9.90
2018-12-24T15:43:35.452Z,9.80
2018-12-24T15:46:04.553Z,9.80
2018-12-24T15:48:33.653Z,9.70
2018-12-24T15:51:02.745Z,9.70
2018-12-24T15:53:31.845Z,9.70
2018-12-24T15:56:01.057Z,9.60
2018-12-24T15:58:30.153Z,9.40
2018-12-24T16:00:59.241Z,9.40
2018-12-24T16:03:36.674Z,9.50
2018-12-24T16:06:00.097Z,9.50
2018-12-24T16:08:29.183Z,9.50
2018-12-24T16:10:58.279Z,9.40
2018-12-24T16:13:27.357Z,9.20
2018-12-24T16:15:56.455Z,9.20
2018-12-24T16:18:25.596Z,9.20
2018-12-24T16:20:54.762Z,9.30
2018-12-24T16:23:24.240Z,9.40
2018-12-24T16:25:53.348Z,9.40
2018-12-24T16:28:22.558Z,9.40
2018-12-24T16:30:51.658Z,9.40
2018-12-24T16:33:20.738Z,9.20
2018-12-24T16:35:49.867Z,9.10
2018-12-24T16:38:19.987Z,9.00
2018-12-24T16:40:49.125Z,9.10
2018-12-24T16:43:18.307Z,9.10
2018-12-24T16:45:48.423Z,9.10
2018-12-24T16:48:17.474Z,9.10
2018-12-24T16:50:46.567Z,9.00
2018-12-24T16:53:15.652Z,9.00
2018-12-24T16:55:44.755Z,9.10
2018-12-24T16:58:13.838Z,9.20
2018-12-24T17:00:42.933Z,9.30
2018-12-24T17:03:12.013Z,9.20
2018-12-24T17:05:41.151Z,9.10
2018-12-24T17:08:10.260Z,9.10
2018-12-24T17:10:39.401Z,9.00
2018-12-24T17:13:08.508Z,8.90
2018-12-24T17:15:37.659Z,8.80
2018-12-24T17:18:06.817Z,8.90
2018-12-24T17:20:35.944Z,8.90
2018-12-24T17:23:05.120Z,9.00
2018-12-24T17:25:34.203Z,9.00
2018-12-24T17:28:03.282Z,9.00
2018-12-24T17:30:32.402Z,9.00
2018-12-24T17:33:01.730Z,9.00
2018-12-24T17:35:30.896Z,9.00
2018-12-24T17:38:01.051Z,8.90
2018-12-24T17:40:30.201Z,8.60
2018-12-24T17:42:59.314Z,8.50
2018-12-24T17:45:28.381Z,8.40
2018-12-24T17:47:57.457Z,8.40
2018-12-24T17:50:26.540Z,8.40
2018-12-24T17:52:55.711Z,8.50
2018-12-24T17:55:24.785Z,8.50
2018-12-24T17:57:53.873Z,8.50
2018-12-24T18:00:22.953Z,8.50
2018-12-24T18:02:52.028Z,8.70
2018-12-24T18:05:21.121Z,8.80
2018-12-24T18:07:50.202Z,8.80
2018-12-24T18:10:19.289Z,8.80
2018-12-24T18:12:48.361Z,8.70
2018-12-24T18:15:18.364Z,8.60
2018-12-24T18:17:47.438Z,8.40
2018-12-24T18:20:16.530Z,8.50
2018-12-24T18:22:45.602Z,8.70
2018-12-24T18:25:15.657Z,8.80
2018-12-24T18:27:45.036Z,8.90
2018-12-24T18:30:14.122Z,8.90
2018-12-24T18:32:44.270Z,8.90
2018-12-24T18:35:13.363Z,8.60
2018-12-24T18:37:42.438Z,8.70
2018-12-24T18:40:11.528Z,8.70
2018-12-24T18:42:40.601Z,8.70
2018-12-24T18:45:09.690Z,8.50
2018-12-24T18:47:38.760Z,8.50
2018-12-24T18:50:07.850Z,8.50
2018-12-24T18:52:36.925Z,8.20
2018-12-24T18:55:06.070Z,8.30
2018-12-24T18:57:35.170Z,8.30
2018-12-24T19:00:07.032Z,8.30
2018-12-24T19:02:37.153Z,8.00
2018-12-24T19:05:07.972Z,7.90
2018-12-24T19:07:37.057Z,7.80
2018-12-24T19:10:07.680Z,7.70
2018-12-24T19:12:36.753Z,7.70
2018-12-24T19:15:06.981Z,7.60
2018-12-24T19:17:41.475Z,7.60
2018-12-24T19:20:08.177Z,7.70
2018-12-24T19:22:37.253Z,7.70
2018-12-24T19:25:06.371Z,7.70
2018-12-24T19:27:35.442Z,7.60
2018-12-24T19:30:06.479Z,7.50
2018-12-24T19:32:35.550Z,7.40
2018-12-24T19:35:04.637Z,7.30
2018-12-24T19:37:33.716Z,7.20
2018-12-24T19:40:03.126Z,7.20
2018-12-24T19:42:32.216Z,7.20
2018-12-24T19:45:01.314Z,7.10
2018-12-24T19:47:30.478Z,7.10
2018-12-24T19:49:59.562Z,7.00
2018-12-24T19:52:28.646Z,7.00
2018-12-24T19:54:57.723Z,6.80
2018-12-24T19:57:27.880Z,6.70
2018-12-24T19:59:56.956Z,6.50
2018-12-24T20:02:26.044Z,6.50
2018-12-24T20:04:55.130Z,6.60
2018-12-24T20:07:24.222Z,6.60
2018-12-24T20:09:53.537Z,6.60
2018-12-24T20:12:22.625Z,6.50
2018-12-24T20:14:51.704Z,6.40
2018-12-24T20:17:20.837Z,6.40
2018-12-24T20:19:49.904Z,6.30
2018-12-24T20:22:19.071Z,6.20
2018-12-24T20:24:48.151Z,6.20
2018-12-24T20:27:17.240Z,6.20
2018-12-24T20:29:46.312Z,6.30
2018-12-24T20:32:15.409Z,6.10
2018-12-24T20:34:44.554Z,6.10
2018-12-24T20:37:13.645Z,6.10
2018-12-24T20:39:42.729Z,6.00
2018-12-24T20:42:11.815Z,5.90
2018-12-24T20:44:40.900Z,5.70
2018-12-24T20:47:09.991Z,5.70
2018-12-24T20:49:39.081Z,5.40
2018-12-24T20:52:08.188Z,5.50
2018-12-24T20:54:38.614Z,5.40
2018-12-24T20:57:07.948Z,5.40
2018-12-24T20:59:37.053Z,5.50
2018-12-24T21:02:06.156Z,5.50
2018-12-24T21:04:35.246Z,5.50
2018-12-24T21:07:04.325Z,5.50
2018-12-24T21:09:33.526Z,5.50
2018-12-24T21:12:02.677Z,5.50
2018-12-24T21:14:31.765Z,5.50
2018-12-24T21:17:00.858Z,5.20
2018-12-24T21:19:30.094Z,5.10
2018-12-24T21:21:59.176Z,5.20
2018-12-24T21:24:28.277Z,5.00
2018-12-24T21:26:57.358Z,4.90
2018-12-24T21:29:26.448Z,4.90
2018-12-24T21:31:55.576Z,4.90
2018-12-24T21:34:24.710Z,5.00
2018-12-24T21:36:53.797Z,5.00
2018-12-24T21:39:22.888Z,5.10
2018-12-24T21:41:51.972Z,5.00
2018-12-24T21:44:21.070Z,5.10
2018-12-24T21:46:50.154Z,5.10
2018-12-24T21:49:19.276Z,5.00
2018-12-24T21:51:48.432Z,5.00
2018-12-24T21:54:17.541Z,5.00
2018-12-24T21:56:46.961Z,5.00
2018-12-24T21:59:17.035Z,4.90
2018-12-24T22:01:46.112Z,4.80
2018-12-24T22:04:15.203Z,4.70
2018-12-24T22:06:44.286Z,4.70
2018-12-24T22:09:13.373Z,4.50
2018-12-24T22:11:42.453Z,4.50
2018-12-24T22:14:11.540Z,4.70
2018-12-24T22:16:40.625Z,4.80
2018-12-24T22:19:09.723Z,4.70
2018-12-24T22:21:38.978Z,4.70
2018-12-24T22:24:08.077Z,4.70
2018-12-24T22:26:37.155Z,4.60
2018-12-24T22:29:06.248Z,4.60
2018-12-24T22:31:35.322Z,4.60
2018-12-24T22:34:04.444Z,4.60
2018-12-24T22:36:33.513Z,4.60
2018-12-24T22:39:02.608Z,4.40
2018-12-24T22:41:31.695Z,4.40
2018-12-24T22:44:00.837Z,4.30
2018-12-24T22:46:29.974Z,4.20
2018-12-24T22:48:59.403Z,4.20
2018-12-24T22:51:28.539Z,4.20
2018-12-24T22:53:57.649Z,4.30
2018-12-24T22:56:26.733Z,4.20
2018-12-24T22:58:55.814Z,4.20
2018-12-24T23:01:24.988Z,4.20
2018-12-24T23:03:54.123Z,4.10
2018-12-24T23:06:23.213Z,3.90
2018-12-24T23:08:52.314Z,4.00
2018-12-24T23:11:21.482Z,4.00
2018-12-24T23:13:50.562Z,4.10
2018-12-24T23:16:19.647Z,4.10
2018-12-24T23:18:49.601Z,4.10
2018-12-24T23:21:19.147Z,4.00
2018-12-24T23:23:48.230Z,4.10
2018-12-24T23:26:17.311Z,4.10
2018-12-24T23:28:46.396Z,4.00
2018-12-24T23:31:15.557Z,3.90
2018-12-24T23:33:44.691Z,4.00
2018-12-24T23:36:13.800Z,4.00
2018-12-24T23:38:42.878Z,3.90
2018-12-24T23:41:12.011Z,3.90
2018-12-24T23:43:41.137Z,3.80
2018-12-24T23:46:10.229Z,3.80
2018-12-24T23:48:39.304Z,3.70
2018-12-24T23:51:08.400Z,3.60
2018-12-24T23:53:37.476Z,3.80
2018-12-24T23:56:06.554Z,4.00
2018-12-24T23:58:35.642Z,4.00
